El Paso, TX (88520)

3:45 PM MDT on October 21, 2014 (GMT -0600)
DOLPHIN | Change Station
CLOSE
Current Station
Personal Weather Station
Location: EL PASO, TX
Elevation: 3898 ft
Nearby Weather Stations

Elev 3898 ft 31.89 °N, 106.40 °W | Updated 7 seconds ago

Scattered Clouds
Scattered Clouds
74.0 °F
Feels Like 77 °F
N
0.0
Wind Variable Wind from North
Gusts 0.0 mph

Today
High -- | Low -- °F
--% Chance of Precip.
Yesterday
High -- | Low -- °F
Precip. -- in
7:13 AM 6:26 PM
Waning Crescent, 4% visible
Pressure 29.85 in
Visibility 10.0 miles
Clouds Few 5000 ft
Scattered Clouds 6000 ft
Scattered Clouds 25000 ft
Heat Index 77 °F
Dew Point 56 °F
Humidity 53%
Rainfall 0.00 in
Snow Depth Not available.
UV 4 out of 12
Pollen 4.70 out of 12
Air Quality Not available.
Flu Activity Sporadic
METAR KELP 212051Z 00000KT 10SM FEW050 SCT060 SCT250 22/11 A3000 RMK AO2 SLP107 CB DSNT SE TCU DSNT NE-S T02170111 58025

More Conditions Fewer Conditions

Pressure 29.85 in
Visibility 10.0 miles
Clouds Few 5000 ft
Scattered Clouds 6000 ft
Scattered Clouds 25000 ft
Heat Index 77 °F
Dew Point 56 °F
Humidity 53%
Rainfall 0.00 in
Snow Depth Not available.
UV 4 out of 12
Pollen 4.70 out of 12
Air Quality Not available.
Flu Activity Sporadic
METAR KELP 212051Z 00000KT 10SM FEW050 SCT060 SCT250 22/11 A3000 RMK AO2 SLP107 CB DSNT SE TCU DSNT NE-S T02170111 58025

More Conditions Fewer Conditions

Nowcast | as of 3:11 PM MDT on October 21, 2014

Scattered thunderstorms continue across much of this area. Stronger cells are located just east of Orogrande and between Hueco Mountains and Cornudas. While most of the rainfall is of the light to moderate amount...radar is estimating a couple of higher areas of rainfall...up to about one inch to one and one-quarter inch of rain. These areas are out in rural areas about 18 miles west of Cornudas and also 16 miles southeast of Orogrande. Small hail and gusty winds of 30 to 40 mph are also possible with some of these storms.

×

10-Day Weather Forecast

Almanac

Astronomy

Oct. 21, 2014 Rise Set
Actual Time 7:13 AM MDT 6:26 PM MDT
Civil Twilight 6:48 AM MDT 6:51 PM MDT
Nautical Twilight 6:20 AM MDT 7:19 PM MDT
Astronomical Twilight 5:51 AM MDT 7:48 PM MDT
Moon 5:08 AM MDT 5:16 PM MDT
Length of Visible Light 12h 02m
Length of Day
11h 13m
Tomorrow will be 1m 49s shorter.
Waning Crescent, 4% of the Moon is Illuminated
Today
Waning Crescent
Oct 23
New
Oct 30
First Quarter
Nov 6
Full
Nov 14
Last Quarter

Today's Extremes

State Highs State Lows

Community

WunderPhotos

Upload Photos

1,763,785 photos uploaded!

Nearby

Snow Depth

Station Depth Elevation
No new snow has been reported.

Earthquake Activity

City Distance Mag. Time & Date
No recent earthquake activity has been reported nearby.
Minimum magnitude displayed is 2.5.

Coastal Water Temperatures

Place Temperature
No Stations Reporting

Nearby Weather Stations